YBWW Airport Information

Runway Information
Airport Frequencies
Airport Navaids
Airport Weather Information & NOTAM
ADDS - METARS form results

(2337 UTC 27 November 2021)
Data provider http://aviationweather.gov/metar/data/
 
METAR text: YBWW 272330Z AUTO 11011KT 9999 // SCT022 BKN041 OVC058 20/16 Q1017
Conditions at: YBWW (TOOWOOMBA , AU) observed 2330 UTC 27 November 2021
Temperature: 20.0°C (68°F)
Dewpoint: 16.0°C (61°F) [RH = 78%]
Pressure (altimeter): 30.03 inches Hg (1017.0 mb)
Winds: from the ESE (110 degrees) at 13 MPH (11 knots; 5.7 m/s)
Visibility: 6 or more miles (10+ km)
Ceiling: 4100 feet AGL
Clouds: scattered clouds at 2200 feet AGL
broken clouds at 4100 feet AGL
overcast cloud deck at 5800 feet AGL
Weather: no significant weather observed at this time

METAR text: YBWW 272300Z AUTO 13006KT 090V150 9999 // SCT055 20/16 Q1017
Conditions at: YBWW (TOOWOOMBA , AU) observed 2300 UTC 27 November 2021
Temperature: 20.0°C (68°F)
Dewpoint: 16.0°C (61°F) [RH = 78%]
Pressure (altimeter): 30.03 inches Hg (1017.0 mb)
Winds: from the SE (130 degrees) at 7 MPH (6 knots; 3.1 m/s)
Visibility: 6 or more miles (10+ km)
Ceiling: at least 12,000 feet AGL
Clouds: scattered clouds at 5500 feet AGL
Weather: no significant weather observed at this time

Forecast for: AMD
Text: TAF AMD YBWW 271729Z 2717/2812 08010KT 9999 SCT020
Forecast period: 1700 to 2300 UTC 27 November 2021
Forecast type: FROM: standard forecast or significant change
Winds: from the E (80 degrees) at 12 MPH (10 knots; 5.1 m/s)
Visibility: 6 or more miles (10+ km)
Ceiling: at least 12,000 feet AGL
Clouds: scattered clouds at 2000 feet AGL
Weather: no significant weather forecast for this period
Text: FM272300 09012KT 9999 SCT040
Forecast period: 2300 UTC 27 November 2021 to 1000 UTC 28 November 2021
Forecast type: FROM: standard forecast or significant change
Winds: from the E (90 degrees) at 14 MPH (12 knots; 6.2 m/s)
Visibility: 6 or more miles (10+ km)
Ceiling: at least 12,000 feet AGL
Clouds: scattered clouds at 4000 feet AGL
Weather: no significant weather forecast for this period
Text: FM281000 09013KT 9999 SCT020
Forecast period: 1000 to 1200 UTC 28 November 2021
Forecast type: FROM: standard forecast or significant change
Winds: from the E (90 degrees) at 15 MPH (13 knots; 6.7 m/s)
Visibility: 6 or more miles (10+ km)
Ceiling: at least 12,000 feet AGL
Clouds: scattered clouds at 2000 feet AGL
Weather: no significant weather forecast for this period
Text: TEMPO 2717/2723 9999 BKN015
Forecast period: 1700 to 2300 UTC 27 November 2021
Forecast type: TEMPORARY: The following changes expected for less than half the time period
Visibility: 6 or more miles (10+ km)
Ceiling: 1500 feet AGL
Clouds: broken clouds at 1500 feet AGL
Weather: no significant weather forecast for this period